createdAt,value
2022-08-20T00:00:07.343Z,18.57
2022-08-20T00:01:06.098Z,18.51
2022-08-20T00:02:05.601Z,18.53
2022-08-20T00:03:07.837Z,18.47
2022-08-20T00:04:05.360Z,18.46
2022-08-20T00:05:05.596Z,18.45
2022-08-20T00:06:07.558Z,18.35
2022-08-20T00:07:05.445Z,18.32
2022-08-20T00:08:06.384Z,18.32
2022-08-20T00:09:05.433Z,18.3
2022-08-20T00:10:06.366Z,18.24
2022-08-20T00:11:06.786Z,18.31
2022-08-20T00:12:06.330Z,18.28
2022-08-20T00:13:08.056Z,18.3
2022-08-20T00:14:06.265Z,18.33
2022-08-20T00:15:06.183Z,18.32
2022-08-20T00:16:06.461Z,18.25
2022-08-20T00:17:06.424Z,18.21
2022-08-20T00:18:06.332Z,18.21
2022-08-20T00:19:06.851Z,18.19
2022-08-20T00:20:07.237Z,18.16
2022-08-20T00:21:08.197Z,18.12
2022-08-20T00:22:05.859Z,18.08
2022-08-20T00:23:10.208Z,18.08
2022-08-20T00:24:07.155Z,18.08
2022-08-20T00:25:07.624Z,18.06
2022-08-20T00:26:07.858Z,18.07
2022-08-20T00:27:07.141Z,18.03
2022-08-20T00:28:07.063Z,18.06
2022-08-20T00:29:07.083Z,18.02
2022-08-20T00:30:09.280Z,18.12
2022-08-20T00:31:09.208Z,18.07
2022-08-20T00:32:07.416Z,18.08
2022-08-20T00:33:12.147Z,18.13
2022-08-20T00:34:08.706Z,18.09
2022-08-20T00:35:09.017Z,18.07
2022-08-20T00:36:09.772Z,18.06
2022-08-20T00:37:09.720Z,18.03
2022-08-20T00:38:09.496Z,18.09
2022-08-20T00:39:09.406Z,18.01
2022-08-20T00:40:22.202Z,18.05
2022-08-20T00:41:12.700Z,18.03
2022-08-20T00:42:10.333Z,18.02
2022-08-20T00:44:15.479Z,17.99
2022-08-20T00:45:13.462Z,17.91
2022-08-20T00:46:22.500Z,17.96
2022-08-20T00:47:13.399Z,17.97
2022-08-20T00:48:13.404Z,17.91
2022-08-20T00:50:20.638Z,17.86
2022-08-20T00:52:20.991Z,17.79
2022-08-20T00:53:21.967Z,17.8
2022-08-20T00:55:28.513Z,17.83
2022-08-20T00:56:28.634Z,17.82
2022-08-20T00:57:53.265Z,17.83
2022-08-20T00:58:29.707Z,17.73
2022-08-20T00:59:30.996Z,17.7
2022-08-20T01:00:31.582Z,17.69
2022-08-20T01:01:29.302Z,17.65
2022-08-20T01:02:31.205Z,17.67
2022-08-20T01:03:29.217Z,17.71
2022-08-20T01:04:31.944Z,17.65
2022-08-20T01:05:29.600Z,17.67
2022-08-20T01:06:28.982Z,17.69
2022-08-20T01:07:30.141Z,17.66
2022-08-20T01:08:29.149Z,17.66
2022-08-20T01:09:49.453Z,17.76
2022-08-20T01:10:34.038Z,17.73
2022-08-20T01:11:31.189Z,17.63
2022-08-20T01:12:34.797Z,17.65
2022-08-20T01:13:35.194Z,17.63
2022-08-20T01:14:34.528Z,17.61
2022-08-20T01:15:34.568Z,17.71
2022-08-20T01:16:34.970Z,17.72
2022-08-20T01:17:36.527Z,17.68
2022-08-20T01:18:36.628Z,17.67
2022-08-20T01:19:36.731Z,17.62
2022-08-20T01:20:37.964Z,17.55
2022-08-20T01:21:37.160Z,17.48
2022-08-20T01:24:36.949Z,17.46
2022-08-20T01:26:41.966Z,17.44
2022-08-20T01:27:42.825Z,17.46
2022-08-20T01:29:44.038Z,17.44
2022-08-20T01:30:43.804Z,17.42
2022-08-20T01:31:44.073Z,17.37
2022-08-20T01:32:43.803Z,17.4
2022-08-20T01:33:44.154Z,17.34
2022-08-20T01:34:43.797Z,17.33
2022-08-20T01:35:44.591Z,17.29
2022-08-20T01:36:46.589Z,17.31
2022-08-20T01:37:43.893Z,17.3
2022-08-20T01:38:53.162Z,17.32
2022-08-20T01:39:46.218Z,17.31
2022-08-20T01:42:59.148Z,17.22
2022-08-20T01:43:57.003Z,17.18
2022-08-20T01:44:56.076Z,17.18
2022-08-20T01:45:56.449Z,17.14
2022-08-20T01:46:57.554Z,17.12
2022-08-20T01:47:56.704Z,17.09
2022-08-20T01:48:57.181Z,17.04
2022-08-20T01:49:58.029Z,17.07
2022-08-20T01:51:01.758Z,17.08
2022-08-20T01:52:00.565Z,17.05
2022-08-20T01:54:02.660Z,16.97
2022-08-20T01:55:02.565Z,17.01
2022-08-20T01:56:03.627Z,17
2022-08-20T01:57:04.852Z,16.95
2022-08-20T01:58:02.474Z,16.91
2022-08-20T01:59:04.075Z,16.9
2022-08-20T02:00:04.208Z,16.89
2022-08-20T02:01:02.499Z,16.87
2022-08-20T02:02:02.697Z,16.87
2022-08-20T02:03:02.785Z,16.85
2022-08-20T02:04:03.785Z,16.81
2022-08-20T02:05:02.657Z,16.75
2022-08-20T02:06:02.624Z,16.76
2022-08-20T02:07:04.111Z,16.78
2022-08-20T02:08:02.732Z,16.74
2022-08-20T02:09:03.695Z,16.73
2022-08-20T02:10:02.801Z,16.75
2022-08-20T02:11:02.801Z,16.75
2022-08-20T02:12:03.422Z,16.67
2022-08-20T02:13:02.860Z,16.66
2022-08-20T02:14:04.308Z,16.67
2022-08-20T02:15:03.489Z,16.67
2022-08-20T02:16:02.816Z,16.68
2022-08-20T02:17:03.136Z,16.64
2022-08-20T02:18:04.401Z,16.66
2022-08-20T02:21:07.648Z,16.55
2022-08-20T02:23:12.323Z,16.61
2022-08-20T02:24:12.001Z,16.55
2022-08-20T02:25:12.227Z,16.54
2022-08-20T02:26:11.847Z,16.57
2022-08-20T02:27:11.874Z,16.52
2022-08-20T02:28:12.888Z,16.52
2022-08-20T02:29:12.823Z,16.49
2022-08-20T02:31:12.755Z,16.49
2022-08-20T02:32:25.155Z,16.45
2022-08-20T02:33:15.870Z,16.47
2022-08-20T02:34:21.773Z,16.42
2022-08-20T02:35:14.550Z,16.43
2022-08-20T02:36:15.096Z,16.45
2022-08-20T02:37:14.550Z,16.44
2022-08-20T02:38:15.195Z,16.43
2022-08-20T02:39:14.647Z,16.43
2022-08-20T02:40:17.728Z,16.42
2022-08-20T02:41:19.188Z,16.41
2022-08-20T02:42:18.947Z,16.36
2022-08-20T02:43:18.879Z,16.38
2022-08-20T02:44:19.105Z,16.39
2022-08-20T02:45:19.251Z,16.4
2022-08-20T02:46:18.986Z,16.41
2022-08-20T02:47:19.024Z,16.4
2022-08-20T02:48:21.086Z,16.38
2022-08-20T02:49:19.378Z,16.4
2022-08-20T02:50:19.588Z,16.41
2022-08-20T02:51:19.124Z,16.39
2022-08-20T02:52:22.086Z,16.43
2022-08-20T02:53:22.512Z,16.42
2022-08-20T02:54:22.141Z,16.36
2022-08-20T02:55:26.901Z,16.34
2022-08-20T02:56:24.752Z,16.36
2022-08-20T02:57:24.719Z,16.34
2022-08-20T02:58:24.718Z,16.33
2022-08-20T02:59:24.761Z,16.37
2022-08-20T03:00:24.619Z,16.32
2022-08-20T03:01:24.847Z,16.29
2022-08-20T03:02:24.877Z,16.32
2022-08-20T03:03:25.352Z,16.34
2022-08-20T03:04:24.789Z,16.29
2022-08-20T03:05:25.174Z,16.31
2022-08-20T03:06:25.393Z,16.37
2022-08-20T03:07:24.813Z,16.34
2022-08-20T03:08:25.730Z,16.29
2022-08-20T03:09:24.895Z,16.3
2022-08-20T03:11:26.384Z,16.35
2022-08-20T03:12:26.356Z,16.32
2022-08-20T03:13:26.359Z,16.27
2022-08-20T03:14:26.242Z,16.28
2022-08-20T03:15:26.236Z,16.3
2022-08-20T03:16:26.573Z,16.3
2022-08-20T03:17:26.897Z,16.29
2022-08-20T03:18:28.108Z,16.31
2022-08-20T03:19:26.546Z,16.3
2022-08-20T03:20:27.048Z,16.33
2022-08-20T03:21:26.492Z,16.33
2022-08-20T03:22:26.455Z,16.33
2022-08-20T03:23:26.464Z,16.37
2022-08-20T03:24:26.607Z,16.4
2022-08-20T03:25:26.670Z,16.37
2022-08-20T03:26:26.532Z,16.34
2022-08-20T03:27:26.854Z,16.33
2022-08-20T03:28:28.038Z,16.38
2022-08-20T03:29:27.872Z,16.36
2022-08-20T03:30:28.477Z,16.35
2022-08-20T03:31:28.014Z,16.35
2022-08-20T03:32:27.943Z,16.38
2022-08-20T03:33:28.238Z,16.38
2022-08-20T03:34:28.049Z,16.38
2022-08-20T03:35:29.138Z,16.36
2022-08-20T03:36:29.083Z,16.37
2022-08-20T03:37:32.100Z,16.41
2022-08-20T03:38:33.123Z,16.42
2022-08-20T03:39:30.005Z,16.46
2022-08-20T03:40:33.205Z,16.47
2022-08-20T03:41:30.247Z,16.52
2022-08-20T03:42:30.059Z,16.53
2022-08-20T03:43:30.423Z,16.54
2022-08-20T03:44:30.062Z,16.55
2022-08-20T03:45:29.979Z,16.59
2022-08-20T03:46:30.086Z,16.57
2022-08-20T03:47:30.232Z,16.56
2022-08-20T03:48:30.119Z,16.6
2022-08-20T03:49:30.098Z,16.64
2022-08-20T03:50:31.781Z,16.67
2022-08-20T03:51:30.387Z,16.7
2022-08-20T03:52:30.201Z,16.71
2022-08-20T03:53:30.151Z,16.72
2022-08-20T03:54:32.027Z,16.76
2022-08-20T03:55:31.217Z,16.76
2022-08-20T03:56:30.198Z,16.77
2022-08-20T03:57:30.380Z,16.79
2022-08-20T03:58:35.125Z,16.77
2022-08-20T03:59:32.794Z,16.8
2022-08-20T04:00:35.000Z,16.83
2022-08-20T04:01:37.046Z,16.86
2022-08-20T04:02:37.451Z,16.86
2022-08-20T04:03:37.503Z,16.86
2022-08-20T04:04:37.700Z,16.87
2022-08-20T04:05:39.341Z,16.86
2022-08-20T04:06:37.522Z,16.89
2022-08-20T04:07:37.495Z,16.97
2022-08-20T04:08:37.383Z,16.97
2022-08-20T04:09:37.918Z,16.98
2022-08-20T04:10:38.033Z,16.97
2022-08-20T04:11:37.573Z,17.01
2022-08-20T04:12:38.261Z,17.01
2022-08-20T04:13:41.462Z,17.07
2022-08-20T04:14:39.977Z,17.08
2022-08-20T04:15:40.302Z,17.12
2022-08-20T04:16:40.054Z,17.12
2022-08-20T04:17:40.942Z,17.12
2022-08-20T04:18:40.038Z,17.15
2022-08-20T04:19:40.610Z,17.18
2022-08-20T04:20:42.038Z,17.18
2022-08-20T04:21:40.028Z,17.15
2022-08-20T04:22:40.079Z,17.25
2022-08-20T04:23:40.284Z,17.27
2022-08-20T04:24:41.133Z,17.29
2022-08-20T04:25:43.240Z,17.29
2022-08-20T04:26:39.982Z,17.31
2022-08-20T04:27:40.677Z,17.29
2022-08-20T04:28:40.078Z,17.34
2022-08-20T04:29:40.841Z,17.27
2022-08-20T04:30:40.302Z,17.29
2022-08-20T04:31:43.892Z,17.37
2022-08-20T04:32:44.331Z,17.38
2022-08-20T04:33:44.049Z,17.4
2022-08-20T04:34:44.096Z,17.42
2022-08-20T04:35:44.022Z,17.46
2022-08-20T04:36:44.047Z,17.45
2022-08-20T04:37:45.155Z,17.48
2022-08-20T04:38:49.642Z,17.48
2022-08-20T04:39:47.532Z,17.47
2022-08-20T04:40:47.325Z,17.5
2022-08-20T04:41:47.287Z,17.45
2022-08-20T04:42:47.152Z,17.49
2022-08-20T04:43:49.795Z,17.59
2022-08-20T04:44:49.850Z,17.6
2022-08-20T04:45:49.804Z,17.64
2022-08-20T04:46:49.780Z,17.6
2022-08-20T04:47:50.639Z,17.59
2022-08-20T04:48:50.376Z,17.72
2022-08-20T04:49:49.946Z,17.68
2022-08-20T04:50:50.364Z,17.63
2022-08-20T04:51:49.848Z,17.71
2022-08-20T04:52:49.759Z,17.68
2022-08-20T04:53:53.119Z,17.72
2022-08-20T04:54:50.640Z,17.77
2022-08-20T04:55:51.542Z,17.66
2022-08-20T04:56:50.942Z,17.7
2022-08-20T04:57:50.612Z,17.72
2022-08-20T04:58:50.960Z,17.7
2022-08-20T04:59:50.980Z,17.7
2022-08-20T05:00:51.761Z,17.73
2022-08-20T05:01:50.671Z,17.72
2022-08-20T05:02:50.689Z,17.68
2022-08-20T05:03:50.849Z,17.7
2022-08-20T05:04:50.724Z,17.66
2022-08-20T05:05:51.337Z,17.68
2022-08-20T05:06:50.703Z,17.77
2022-08-20T05:07:50.879Z,17.7
2022-08-20T05:08:50.736Z,17.68
2022-08-20T05:09:50.680Z,17.75
2022-08-20T05:10:51.131Z,17.67
2022-08-20T05:11:52.740Z,17.79
2022-08-20T05:12:56.615Z,17.8
2022-08-20T05:13:53.765Z,17.78
2022-08-20T05:14:53.727Z,17.8
2022-08-20T05:15:54.026Z,17.78
2022-08-20T05:16:53.751Z,17.83
2022-08-20T05:17:55.802Z,17.91
2022-08-20T05:18:53.810Z,17.85
2022-08-20T05:19:53.828Z,17.92
2022-08-20T05:20:54.248Z,17.8
2022-08-20T05:21:53.841Z,17.79
2022-08-20T05:22:54.054Z,17.79
2022-08-20T05:23:53.827Z,17.84
2022-08-20T05:24:54.088Z,17.82
2022-08-20T05:25:53.906Z,17.87
2022-08-20T05:26:53.824Z,17.91
2022-08-20T05:27:56.649Z,17.8
2022-08-20T05:28:59.128Z,17.87
2022-08-20T05:30:05.255Z,17.85
2022-08-20T05:30:56.708Z,17.9
2022-08-20T05:31:56.726Z,17.94
2022-08-20T05:32:56.809Z,17.92
2022-08-20T05:33:56.798Z,17.94
2022-08-20T05:34:56.714Z,17.94
2022-08-20T05:35:57.508Z,18
2022-08-20T05:36:56.865Z,17.85
2022-08-20T05:37:57.240Z,17.82
2022-08-20T05:38:56.886Z,17.93
2022-08-20T05:39:57.100Z,18.01
2022-08-20T05:40:56.936Z,18.13
2022-08-20T05:41:56.919Z,18.09
2022-08-20T05:42:56.922Z,18.17
2022-08-20T05:43:58.046Z,18.12
2022-08-20T05:44:56.965Z,18.27
2022-08-20T05:45:57.771Z,18.31
2022-08-20T05:46:57.041Z,18.27
2022-08-20T05:47:57.609Z,18.25
2022-08-20T05:48:59.372Z,18.44
2022-08-20T05:49:57.188Z,18.35
2022-08-20T05:50:57.036Z,18.27
2022-08-20T05:51:57.088Z,18.39
2022-08-20T05:52:57.080Z,18.41
2022-08-20T05:53:58.009Z,18.25
2022-08-20T05:54:57.034Z,18.25
2022-08-20T05:55:57.169Z,18.2
2022-08-20T05:56:57.165Z,18.19
2022-08-20T05:57:57.915Z,18.13
2022-08-20T05:58:57.399Z,18.08
2022-08-20T05:59:57.155Z,18.06
2022-08-20T06:00:57.191Z,18.08
2022-08-20T06:01:57.178Z,18.06
2022-08-20T06:02:57.197Z,18.13
2022-08-20T06:03:57.254Z,18.21
2022-08-20T06:04:57.233Z,18.24
2022-08-20T06:05:57.229Z,18.34
2022-08-20T06:07:04.944Z,18.3
2022-08-20T06:08:07.399Z,18.35
2022-08-20T06:09:04.606Z,18.37
2022-08-20T06:10:05.473Z,18.57
2022-08-20T06:11:05.041Z,18.58
2022-08-20T06:12:06.374Z,18.65
2022-08-20T06:13:05.102Z,18.58
2022-08-20T06:14:05.206Z,18.61
2022-08-20T06:15:05.505Z,18.52
2022-08-20T06:16:06.804Z,18.45
2022-08-20T06:17:13.217Z,18.49
2022-08-20T06:18:23.146Z,18.47
2022-08-20T06:19:11.361Z,18.6
2022-08-20T06:20:10.178Z,18.6
2022-08-20T06:21:09.648Z,18.63
2022-08-20T06:22:19.068Z,18.66
2022-08-20T06:23:13.178Z,18.63
2022-08-20T06:24:12.618Z,18.54
2022-08-20T06:25:12.731Z,18.48
2022-08-20T06:26:12.744Z,18.51
2022-08-20T06:27:14.304Z,18.48
2022-08-20T06:28:13.863Z,18.49
2022-08-20T06:29:12.790Z,18.67
2022-08-20T06:30:14.852Z,18.49
2022-08-20T06:31:12.675Z,18.57
2022-08-20T06:32:12.894Z,18.47
2022-08-20T06:33:12.824Z,18.55
2022-08-20T06:34:12.815Z,18.53
2022-08-20T06:35:14.993Z,18.57
2022-08-20T06:36:15.034Z,18.46
2022-08-20T06:37:16.791Z,18.46
2022-08-20T06:38:16.296Z,18.5
2022-08-20T06:39:16.129Z,18.44
2022-08-20T06:40:18.099Z,18.38
2022-08-20T06:41:16.240Z,18.44
2022-08-20T06:42:20.789Z,18.42
2022-08-20T06:43:18.121Z,18.51
2022-08-20T06:44:18.694Z,18.48
2022-08-20T06:45:22.878Z,18.43
2022-08-20T06:46:19.905Z,18.38
2022-08-20T06:47:20.923Z,18.48
2022-08-20T06:48:19.867Z,18.41
2022-08-20T06:49:19.846Z,18.45
2022-08-20T06:50:22.705Z,18.37
2022-08-20T06:51:19.872Z,18.51
2022-08-20T06:52:19.913Z,18.53
2022-08-20T06:53:21.905Z,18.65
2022-08-20T06:54:22.033Z,18.59
2022-08-20T06:55:26.611Z,18.5
2022-08-20T06:56:26.353Z,18.49
2022-08-20T06:57:26.830Z,18.45
2022-08-20T06:58:37.988Z,18.32
2022-08-20T06:59:30.962Z,18.28
2022-08-20T07:00:31.450Z,18.35
2022-08-20T07:01:30.803Z,18.26
2022-08-20T07:02:30.704Z,18.24
2022-08-20T07:03:30.816Z,18.35
2022-08-20T07:04:30.893Z,18.34
2022-08-20T07:05:32.638Z,18.3
2022-08-20T07:06:30.794Z,18.29
2022-08-20T07:07:30.885Z,18.33
2022-08-20T07:08:30.847Z,18.28
2022-08-20T07:09:30.981Z,18.3
2022-08-20T07:10:31.578Z,18.35
2022-08-20T07:11:30.837Z,18.32
2022-08-20T07:12:30.814Z,18.38
2022-08-20T07:13:30.853Z,18.39
2022-08-20T07:14:30.891Z,18.22
2022-08-20T07:15:31.011Z,18.22
2022-08-20T07:16:31.603Z,18.29
2022-08-20T07:17:30.918Z,18.45
2022-08-20T07:18:31.186Z,18.55
2022-08-20T07:19:30.945Z,18.58
2022-08-20T07:20:31.713Z,18.63
2022-08-20T07:21:31.058Z,18.42
2022-08-20T07:22:31.044Z,18.35
2022-08-20T07:23:31.134Z,18.5
2022-08-20T07:24:32.870Z,18.43
2022-08-20T07:25:31.625Z,18.51
2022-08-20T07:26:37.065Z,18.65
2022-08-20T07:27:34.922Z,18.63
2022-08-20T07:28:34.357Z,18.67
2022-08-20T07:29:34.696Z,18.55
2022-08-20T07:30:34.625Z,18.55
2022-08-20T07:31:36.062Z,18.49
2022-08-20T07:32:37.011Z,18.59
2022-08-20T07:33:36.194Z,18.62
2022-08-20T07:34:35.998Z,18.68
2022-08-20T07:35:36.159Z,18.76
2022-08-20T07:36:36.154Z,18.77
2022-08-20T07:37:40.176Z,18.61
2022-08-20T07:38:37.237Z,18.72
2022-08-20T07:39:36.724Z,18.63
2022-08-20T07:40:36.691Z,18.65
2022-08-20T07:41:36.664Z,18.62
2022-08-20T07:42:36.730Z,18.7
2022-08-20T07:43:36.966Z,18.82
2022-08-20T07:44:36.731Z,18.87
2022-08-20T07:45:36.928Z,18.85
2022-08-20T07:46:36.728Z,18.63
2022-08-20T07:47:37.429Z,18.75
2022-08-20T07:48:38.050Z,18.82
2022-08-20T07:49:40.398Z,18.95
2022-08-20T07:50:36.924Z,18.99
2022-08-20T07:51:36.981Z,19.04
2022-08-20T07:52:37.257Z,19.16
2022-08-20T07:53:37.778Z,19.15
2022-08-20T07:54:36.964Z,19.51
2022-08-20T07:55:36.921Z,19.31
2022-08-20T07:56:36.995Z,19.44
2022-08-20T07:57:37.560Z,19.55
2022-08-20T07:58:38.488Z,19.54
2022-08-20T07:59:37.822Z,19.73
2022-08-20T08:00:37.843Z,19.79
2022-08-20T08:01:37.012Z,19.79
2022-08-20T08:02:37.363Z,19.61
2022-08-20T08:03:41.073Z,19.34
2022-08-20T08:04:41.826Z,19.3
2022-08-20T08:05:43.497Z,19.48
2022-08-20T08:06:41.819Z,19.51
2022-08-20T08:07:43.090Z,19.56
2022-08-20T08:08:41.906Z,19.54
2022-08-20T08:09:42.038Z,19.51
2022-08-20T08:10:42.360Z,19.67
2022-08-20T08:11:47.497Z,19.65
2022-08-20T08:12:46.793Z,19.66
2022-08-20T08:13:44.338Z,19.68
2022-08-20T08:14:45.803Z,19.56
2022-08-20T08:15:47.139Z,19.66
2022-08-20T08:16:44.609Z,19.65
2022-08-20T08:17:46.158Z,19.7
2022-08-20T08:18:49.828Z,19.82
2022-08-20T08:19:48.614Z,19.85
2022-08-20T08:20:47.021Z,19.64
2022-08-20T08:21:46.500Z,19.52
2022-08-20T08:22:46.370Z,19.43
2022-08-20T08:23:46.455Z,19.5
2022-08-20T08:24:56.715Z,19.45
2022-08-20T08:25:49.899Z,19.48
2022-08-20T08:26:49.002Z,19.71
2022-08-20T08:27:49.261Z,19.77
2022-08-20T08:28:49.397Z,19.75
2022-08-20T08:29:49.002Z,19.51
2022-08-20T08:30:49.329Z,19.66
2022-08-20T08:31:49.084Z,19.77
2022-08-20T08:32:49.064Z,19.65
2022-08-20T08:33:49.141Z,19.74
2022-08-20T08:34:49.114Z,19.85
2022-08-20T08:35:49.132Z,20.01
2022-08-20T08:36:49.214Z,19.98
2022-08-20T08:37:49.012Z,19.84
2022-08-20T08:38:49.193Z,19.76
2022-08-20T08:39:49.303Z,19.8
2022-08-20T08:40:50.751Z,20.03
2022-08-20T08:41:52.306Z,20
2022-08-20T08:42:52.286Z,20.32
2022-08-20T08:43:52.679Z,20.5
2022-08-20T08:44:50.716Z,20.53
2022-08-20T08:45:56.723Z,20.46
2022-08-20T08:47:01.765Z,20.53
2022-08-20T08:47:53.587Z,20.38
2022-08-20T08:48:55.239Z,20.53
2022-08-20T08:49:53.416Z,20.62
2022-08-20T08:50:54.795Z,20.82
2022-08-20T08:51:58.761Z,20.67
2022-08-20T08:52:57.335Z,20.47
2022-08-20T08:53:56.124Z,20.5
2022-08-20T08:54:58.092Z,20.44
2022-08-20T08:55:55.263Z,20.32
2022-08-20T08:56:55.895Z,20.26
2022-08-20T08:57:56.506Z,20.18
2022-08-20T08:59:00.627Z,20.22
2022-08-20T09:00:04.268Z,20.53
2022-08-20T09:01:06.862Z,20.44
2022-08-20T09:02:06.564Z,20.63
2022-08-20T09:03:08.597Z,20.42
2022-08-20T09:04:06.121Z,20.39
2022-08-20T09:05:13.560Z,20.46
2022-08-20T09:06:13.599Z,20.5
2022-08-20T09:07:13.297Z,20.75
2022-08-20T09:08:16.833Z,20.74
2022-08-20T09:10:22.930Z,20.76
2022-08-20T09:11:21.387Z,20.7
2022-08-20T09:12:21.917Z,20.6
2022-08-20T09:13:19.956Z,20.77
2022-08-20T09:14:21.084Z,20.73
2022-08-20T09:15:20.520Z,20.66
2022-08-20T09:16:20.224Z,20.69
2022-08-20T09:17:21.584Z,20.71
2022-08-20T09:18:20.026Z,20.5
2022-08-20T09:19:20.459Z,20.45
2022-08-20T09:20:19.993Z,20.52
2022-08-20T09:21:20.134Z,20.48
2022-08-20T09:22:22.022Z,20.75
2022-08-20T09:23:20.127Z,20.81
2022-08-20T09:24:20.150Z,20.68
2022-08-20T09:25:20.227Z,20.85
2022-08-20T09:26:20.257Z,21.33
2022-08-20T09:27:20.431Z,21.76
2022-08-20T09:28:20.222Z,21.51
2022-08-20T09:29:20.211Z,21.4
2022-08-20T09:30:20.265Z,21.58
2022-08-20T09:31:20.299Z,21.61
2022-08-20T09:32:21.918Z,21.76
2022-08-20T09:33:20.427Z,21.69
2022-08-20T09:34:20.338Z,21.81
2022-08-20T09:35:20.560Z,21.55
2022-08-20T09:36:31.631Z,21.77
2022-08-20T09:37:25.156Z,22.24
2022-08-20T09:38:24.418Z,22.45
2022-08-20T09:39:24.374Z,22.19
2022-08-20T09:40:24.524Z,21.78
2022-08-20T09:41:24.375Z,22.05
2022-08-20T09:42:32.340Z,21.71
2022-08-20T09:43:28.861Z,21.61
2022-08-20T09:44:28.943Z,21.72
2022-08-20T09:45:29.022Z,21.67
2022-08-20T09:46:29.178Z,21.79
2022-08-20T09:47:28.811Z,21.94
2022-08-20T09:48:31.985Z,21.74
2022-08-20T09:49:28.965Z,21.72
2022-08-20T09:50:30.364Z,21.82
2022-08-20T09:51:29.022Z,21.82
2022-08-20T09:52:34.523Z,22
2022-08-20T09:53:32.956Z,21.99
2022-08-20T09:54:33.112Z,22.26
2022-08-20T09:56:34.541Z,22.22
2022-08-20T09:57:34.825Z,22.02
2022-08-20T09:59:39.351Z,21.85
2022-08-20T10:00:39.908Z,22.05
2022-08-20T10:01:38.756Z,22.31
2022-08-20T10:02:39.104Z,22.7
2022-08-20T10:03:41.795Z,22.75
2022-08-20T10:04:38.740Z,22.83
2022-08-20T10:05:38.884Z,22.62
2022-08-20T10:06:39.499Z,22.28
2022-08-20T10:07:39.260Z,22.19
2022-08-20T10:08:38.767Z,22.21
2022-08-20T10:09:38.824Z,22.05
2022-08-20T10:10:38.877Z,21.99
2022-08-20T10:11:38.923Z,21.88
2022-08-20T10:12:38.904Z,22.17
2022-08-20T10:13:38.938Z,22.39
2022-08-20T10:14:38.843Z,22.45
2022-08-20T10:15:38.950Z,22.33
2022-08-20T10:16:38.912Z,22.38
2022-08-20T10:17:40.184Z,22.66
2022-08-20T10:18:38.939Z,22.78
2022-08-20T10:19:38.930Z,22.81
2022-08-20T10:20:38.941Z,23.02
2022-08-20T10:21:39.498Z,23.13
2022-08-20T10:22:38.893Z,22.75
2022-08-20T10:23:38.931Z,22.56
2022-08-20T10:24:39.048Z,22.45
2022-08-20T10:25:39.109Z,22.26
2022-08-20T10:26:39.112Z,22.03
2022-08-20T10:27:39.085Z,21.8
2022-08-20T10:28:39.387Z,22.08
2022-08-20T10:29:39.079Z,22.02
2022-08-20T10:30:39.282Z,22.09
2022-08-20T10:31:39.524Z,22.14
2022-08-20T10:32:39.168Z,22.4
2022-08-20T10:33:40.502Z,22.69
2022-08-20T10:34:40.065Z,22.77
2022-08-20T10:35:39.131Z,23.1
2022-08-20T10:36:41.489Z,23.28
2022-08-20T10:37:39.248Z,22.94
2022-08-20T10:38:39.693Z,23.28
2022-08-20T10:39:39.379Z,23.16
2022-08-20T10:40:39.200Z,23.14
2022-08-20T10:41:39.308Z,23.33
2022-08-20T10:42:42.602Z,23.25
2022-08-20T10:43:39.756Z,23.31
2022-08-20T10:44:39.771Z,23.57
2022-08-20T10:45:40.390Z,23.63
2022-08-20T10:46:39.480Z,23.79
2022-08-20T10:47:39.514Z,23.61
2022-08-20T10:48:39.515Z,23.79
2022-08-20T10:49:39.590Z,23.93
2022-08-20T10:50:39.465Z,24.63
2022-08-20T10:51:39.569Z,24.41
2022-08-20T10:52:39.582Z,23.83
2022-08-20T10:53:39.632Z,24.05
2022-08-20T10:54:39.971Z,23.81
2022-08-20T10:55:39.603Z,24.1
2022-08-20T10:56:39.616Z,24.42
2022-08-20T10:57:40.896Z,23.59
2022-08-20T10:58:40.078Z,23.94
2022-08-20T10:59:41.465Z,24.39
2022-08-20T11:00:40.272Z,24.26
2022-08-20T11:01:39.874Z,23.51
2022-08-20T11:02:39.802Z,23.21
2022-08-20T11:03:39.715Z,23.5
2022-08-20T11:04:40.102Z,23.37
2022-08-20T11:05:39.899Z,23.24
2022-08-20T11:06:39.805Z,23.27
2022-08-20T11:07:49.844Z,23.16
2022-08-20T11:08:43.626Z,23.32
2022-08-20T11:09:44.646Z,23.07
2022-08-20T11:10:43.929Z,23.15
2022-08-20T11:11:43.612Z,23.2
2022-08-20T11:12:46.180Z,23.59
2022-08-20T11:13:43.793Z,23.45
2022-08-20T11:14:43.857Z,23.91
2022-08-20T11:15:43.980Z,24.06
2022-08-20T11:16:43.664Z,23.91
2022-08-20T11:17:43.931Z,24.04
2022-08-20T11:18:47.331Z,24.32
2022-08-20T11:19:45.078Z,23.92
2022-08-20T11:20:44.840Z,24.36
2022-08-20T11:21:44.803Z,23.8
2022-08-20T11:22:44.825Z,24.04
2022-08-20T11:23:44.872Z,24.05
2022-08-20T11:24:44.851Z,23.71
2022-08-20T11:25:44.875Z,23.48
2022-08-20T11:26:47.506Z,23.19
2022-08-20T11:27:46.256Z,23.24
2022-08-20T11:28:44.979Z,23.32
2022-08-20T11:29:44.933Z,23.36
2022-08-20T11:30:44.953Z,23.51
2022-08-20T11:31:45.033Z,23.56
2022-08-20T11:32:45.136Z,23.32
2022-08-20T11:33:44.997Z,23.27
2022-08-20T11:34:45.336Z,23.12
2022-08-20T11:35:49.439Z,23.24
2022-08-20T11:36:47.861Z,23.15
2022-08-20T11:37:47.223Z,23.13
2022-08-20T11:38:47.766Z,23.13
2022-08-20T11:39:47.220Z,23.13
2022-08-20T11:40:47.229Z,22.92
2022-08-20T11:41:47.181Z,22.92
2022-08-20T11:43:13.835Z,22.91
2022-08-20T11:44:17.544Z,22.92
2022-08-20T11:44:54.762Z,22.85
2022-08-20T11:45:55.384Z,22.87
2022-08-20T11:46:54.749Z,23.13
2022-08-20T11:47:54.882Z,23.25
2022-08-20T11:48:54.839Z,23.38
2022-08-20T11:49:59.142Z,23.5
2022-08-20T11:50:55.774Z,23.49
2022-08-20T11:51:55.610Z,23.35
2022-08-20T11:52:55.754Z,23.64
2022-08-20T11:53:55.682Z,23.72
2022-08-20T11:54:56.074Z,23.94
2022-08-20T11:55:55.772Z,23.98
2022-08-20T11:56:56.008Z,24.02
2022-08-20T11:57:56.180Z,23.97
2022-08-20T11:58:56.605Z,24.05
2022-08-20T11:59:57.999Z,24.12
2022-08-20T12:00:56.615Z,24.21
2022-08-20T12:02:02.426Z,24.27
2022-08-20T12:03:00.515Z,24.37
2022-08-20T12:03:59.832Z,24.33
2022-08-20T12:04:59.958Z,24.37
2022-08-20T12:06:00.090Z,24.63
2022-08-20T12:08:04.136Z,24.72
2022-08-20T12:09:03.906Z,24.46
2022-08-20T12:10:05.299Z,24.82
2022-08-20T12:11:03.856Z,25.13
2022-08-20T12:12:04.135Z,24.7
2022-08-20T12:13:04.682Z,24.21
2022-08-20T12:14:03.775Z,24.34
2022-08-20T12:15:04.843Z,24.29
2022-08-20T12:16:04.398Z,24.33
2022-08-20T12:18:08.874Z,24.32
2022-08-20T12:19:05.631Z,24.11
2022-08-20T12:20:08.682Z,24.03
2022-08-20T12:21:05.604Z,23.89
2022-08-20T12:22:24.909Z,24.04
2022-08-20T12:23:06.880Z,24.07
2022-08-20T12:24:06.914Z,24.15
2022-08-20T12:25:07.657Z,24.12
2022-08-20T12:26:06.897Z,24.11
2022-08-20T12:28:14.021Z,24.14
2022-08-20T12:29:11.393Z,24.23
2022-08-20T12:30:13.273Z,24.54
2022-08-20T12:31:11.354Z,24.72
2022-08-20T12:32:11.771Z,24.43
2022-08-20T12:33:11.447Z,24.7
2022-08-20T12:34:11.411Z,24.63
2022-08-20T12:35:12.164Z,24.71
2022-08-20T12:36:11.454Z,24.64
2022-08-20T12:37:15.944Z,24.4
2022-08-20T12:38:12.614Z,24.21
2022-08-20T12:39:12.707Z,24.3
2022-08-20T12:40:14.646Z,24.1
2022-08-20T12:41:12.670Z,23.97
2022-08-20T12:42:13.120Z,24.15
2022-08-20T12:43:12.738Z,24.5
2022-08-20T12:44:13.461Z,24.69
2022-08-20T12:45:12.786Z,25.09
2022-08-20T12:46:12.767Z,24.81
2022-08-20T12:48:14.319Z,24.42
2022-08-20T12:49:14.346Z,24.84
2022-08-20T12:50:16.048Z,24.97
2022-08-20T12:51:14.426Z,24.93
2022-08-20T12:52:15.609Z,25.18
2022-08-20T12:53:14.412Z,25.22
2022-08-20T12:54:14.460Z,25.39
2022-08-20T12:55:15.362Z,25.03
2022-08-20T12:56:14.426Z,24.8
2022-08-20T12:58:14.739Z,25.12
2022-08-20T12:59:14.827Z,25.45
2022-08-20T13:00:17.543Z,24.97
2022-08-20T13:01:15.057Z,24.98
2022-08-20T13:02:18.398Z,24.89
2022-08-20T13:03:15.526Z,24.45
2022-08-20T13:04:15.262Z,24.39
2022-08-20T13:05:16.031Z,24.42
2022-08-20T13:06:15.269Z,24.6
2022-08-20T13:07:15.445Z,24.54
2022-08-20T13:08:15.582Z,25.06
2022-08-20T13:09:16.022Z,25.41
2022-08-20T13:10:17.235Z,25.68
2022-08-20T13:11:15.367Z,25.46
2022-08-20T13:12:15.371Z,25.34
2022-08-20T13:13:17.666Z,25.27
2022-08-20T13:14:17.282Z,25.12
2022-08-20T13:15:17.404Z,25.02
2022-08-20T13:16:17.334Z,24.8
2022-08-20T13:17:17.897Z,24.59
2022-08-20T13:18:17.460Z,24.39
2022-08-20T13:19:17.405Z,24.38
2022-08-20T13:20:17.568Z,24.43
2022-08-20T13:21:20.090Z,24.26
2022-08-20T13:22:20.012Z,24.3
2022-08-20T13:23:20.016Z,24.57